createdAt,value
2022-10-11T00:00:15.814Z,76.58
2022-10-11T00:02:42.524Z,76.70
2022-10-11T00:05:09.904Z,76.86
2022-10-11T00:07:37.526Z,76.74
2022-10-11T00:10:08.014Z,76.76
2022-10-11T00:12:35.533Z,76.82
2022-10-11T00:15:02.249Z,76.61
2022-10-11T00:17:28.833Z,76.71
2022-10-11T00:19:55.955Z,76.72
2022-10-11T00:22:22.884Z,76.72
2022-10-11T00:24:49.541Z,76.69
2022-10-11T00:27:17.572Z,76.72
2022-10-11T00:29:44.418Z,76.70
2022-10-11T00:32:11.117Z,76.89
2022-10-11T00:34:38.158Z,76.76
2022-10-11T00:37:05.043Z,76.81
2022-10-11T00:39:31.703Z,77.03
2022-10-11T00:41:58.680Z,76.99
2022-10-11T00:44:29.125Z,77.07
2022-10-11T00:47:00.320Z,76.93
2022-10-11T00:49:34.179Z,76.77
2022-10-11T00:52:03.558Z,76.85
2022-10-11T00:54:34.208Z,76.87
2022-10-11T00:57:05.562Z,76.81
2022-10-11T00:59:37.773Z,76.85
2022-10-11T01:02:05.795Z,76.92
2022-10-11T01:04:32.957Z,76.62
2022-10-11T01:07:00.164Z,76.86
2022-10-11T01:09:27.026Z,76.48
2022-10-11T01:11:56.339Z,76.85
2022-10-11T01:14:54.039Z,76.79
2022-10-11T01:17:30.192Z,76.82
2022-10-11T01:20:26.274Z,76.68
2022-10-11T01:23:23.372Z,76.66
2022-10-11T01:26:10.011Z,76.62
2022-10-11T01:28:46.278Z,76.59
2022-10-11T01:31:21.873Z,76.72
2022-10-11T01:33:54.532Z,76.87
2022-10-11T01:36:27.950Z,76.80
2022-10-11T01:39:00.507Z,76.86
2022-10-11T01:41:31.342Z,76.69
2022-10-11T01:44:01.635Z,76.96
2022-10-11T01:46:30.830Z,76.84
2022-10-11T01:49:00.026Z,76.78
2022-10-11T01:51:30.201Z,76.72
2022-10-11T01:54:10.519Z,76.67
2022-10-11T01:57:00.929Z,76.84
2022-10-11T01:59:41.412Z,76.82
2022-10-11T02:02:27.035Z,76.85
2022-10-11T02:04:57.777Z,76.93
2022-10-11T02:07:31.451Z,76.96
2022-10-11T02:10:06.903Z,76.95
2022-10-11T02:12:37.932Z,76.98
2022-10-11T02:15:09.341Z,76.86
2022-10-11T02:17:43.521Z,76.64
2022-10-11T02:20:14.322Z,76.69
2022-10-11T02:22:45.075Z,76.62
2022-10-11T02:25:16.176Z,76.60
2022-10-11T02:27:47.782Z,76.82
2022-10-11T02:30:15.795Z,76.74
2022-10-11T02:32:46.677Z,76.90
2022-10-11T02:35:14.118Z,76.78
2022-10-11T02:37:43.452Z,76.96
2022-10-11T02:40:16.690Z,77.02
2022-10-11T02:42:48.239Z,76.82
2022-10-11T02:45:18.323Z,76.76
2022-10-11T02:47:47.717Z,76.78
2022-10-11T02:50:15.708Z,77.01
2022-10-11T02:52:42.540Z,76.80
2022-10-11T02:55:10.482Z,76.84
2022-10-11T02:57:37.072Z,76.90
2022-10-11T03:00:04.286Z,76.90
2022-10-11T03:02:30.913Z,76.59
2022-10-11T03:04:58.897Z,76.87
2022-10-11T03:07:25.566Z,76.87
2022-10-11T03:09:52.216Z,76.71
2022-10-11T03:12:18.893Z,76.75
2022-10-11T03:14:45.561Z,76.77
2022-10-11T03:17:34.996Z,76.80
2022-10-11T03:20:00.368Z,76.92
2022-10-11T03:22:26.947Z,76.71
2022-10-11T03:24:53.562Z,76.82
2022-10-11T03:27:20.276Z,76.96
2022-10-11T03:29:46.909Z,76.68
2022-10-11T03:32:13.533Z,76.68
2022-10-11T03:34:40.204Z,77.02
2022-10-11T03:37:08.166Z,77.16
2022-10-11T03:39:35.007Z,76.96
2022-10-11T03:42:01.567Z,76.88
2022-10-11T03:44:28.226Z,77.01
2022-10-11T03:46:55.339Z,76.93
2022-10-11T03:49:21.920Z,77.21
2022-10-11T03:51:48.576Z,77.37
2022-10-11T03:54:16.549Z,77.31
2022-10-11T03:56:43.176Z,77.32
2022-10-11T03:59:10.663Z,77.09
2022-10-11T04:01:38.500Z,77.54
2022-10-11T04:04:07.057Z,77.34
2022-10-11T04:06:33.736Z,77.42
2022-10-11T04:09:00.360Z,77.52
2022-10-11T04:11:28.542Z,77.58
2022-10-11T04:13:55.229Z,77.51
2022-10-11T04:16:21.980Z,77.74
2022-10-11T04:18:48.643Z,77.66
2022-10-11T04:21:15.322Z,77.76
2022-10-11T04:23:42.287Z,77.79
2022-10-11T04:26:09.229Z,78.03
2022-10-11T04:28:37.335Z,77.81
2022-10-11T04:31:05.499Z,78.13
2022-10-11T04:33:32.131Z,78.18
2022-10-11T04:35:58.826Z,78.24
2022-10-11T04:38:25.492Z,78.21
2022-10-11T04:40:52.141Z,78.16
2022-10-11T04:43:19.106Z,78.38
2022-10-11T04:45:47.091Z,78.39
2022-10-11T04:48:14.296Z,78.39
2022-10-11T04:50:40.918Z,78.20
2022-10-11T04:53:07.636Z,78.54
2022-10-11T04:55:34.301Z,78.56
2022-10-11T04:58:02.256Z,78.58
2022-10-11T05:00:29.053Z,78.45
2022-10-11T05:02:57.514Z,78.54
2022-10-11T05:05:24.233Z,78.58
2022-10-11T05:07:50.917Z,78.47
2022-10-11T05:10:17.702Z,78.76
2022-10-11T05:12:44.412Z,78.73
2022-10-11T05:15:11.108Z,78.65
2022-10-11T05:17:37.788Z,78.68
2022-10-11T05:20:07.093Z,78.54
2022-10-11T05:22:33.823Z,78.57
2022-10-11T05:25:00.387Z,78.94
2022-10-11T05:27:27.298Z,78.67
2022-10-11T05:29:53.897Z,78.60
2022-10-11T05:32:20.583Z,78.50
2022-10-11T05:34:47.275Z,78.51
2022-10-11T05:37:15.274Z,78.68
2022-10-11T05:39:41.858Z,78.44
2022-10-11T05:42:10.063Z,78.22
2022-10-11T05:44:36.771Z,78.37
2022-10-11T05:47:03.521Z,78.46
2022-10-11T05:49:30.378Z,78.31
2022-10-11T05:51:56.971Z,78.38
2022-10-11T05:54:25.327Z,78.20
2022-10-11T05:56:51.929Z,78.17
2022-10-11T05:59:18.500Z,78.17
2022-10-11T06:01:45.240Z,78.15
2022-10-11T06:04:11.884Z,78.28
2022-10-11T06:06:38.669Z,78.34
2022-10-11T06:09:05.316Z,78.13
2022-10-11T06:11:33.280Z,78.17
2022-10-11T06:14:00.077Z,78.17
2022-10-11T06:16:27.260Z,78.04
2022-10-11T06:18:54.869Z,78.24
2022-10-11T06:21:21.663Z,78.18
2022-10-11T06:23:49.586Z,78.42
2022-10-11T06:26:17.359Z,78.29
2022-10-11T06:28:46.196Z,78.39
2022-10-11T06:31:13.033Z,78.51
2022-10-11T06:33:39.809Z,78.15
2022-10-11T06:36:09.722Z,78.30
2022-10-11T06:38:39.831Z,78.26
2022-10-11T06:41:10.813Z,78.36
2022-10-11T06:43:37.535Z,78.36
2022-10-11T06:46:06.157Z,78.68
2022-10-11T06:48:32.927Z,78.66
2022-10-11T06:51:00.562Z,78.51
2022-10-11T06:53:28.215Z,78.64
2022-10-11T06:56:01.166Z,78.64
2022-10-11T06:58:28.448Z,78.86
2022-10-11T07:00:55.324Z,78.81
2022-10-11T07:03:23.377Z,78.94
2022-10-11T07:05:50.029Z,79.05
2022-10-11T07:08:16.623Z,79.20
2022-10-11T07:10:43.409Z,79.11
2022-10-11T07:13:13.532Z,79.13
2022-10-11T07:15:42.942Z,79.20
2022-10-11T07:18:09.504Z,79.09
2022-10-11T07:20:37.533Z,79.08
2022-10-11T07:23:04.571Z,79.36
2022-10-11T07:25:32.066Z,78.92
2022-10-11T07:27:58.673Z,79.08
2022-10-11T07:30:25.358Z,79.08
2022-10-11T07:32:51.941Z,79.16
2022-10-11T07:35:18.604Z,79.07
2022-10-11T07:37:46.526Z,78.91
2022-10-11T07:40:13.182Z,78.92
2022-10-11T07:42:39.968Z,78.62
2022-10-11T07:45:07.215Z,78.55
2022-10-11T07:47:33.779Z,78.44
2022-10-11T07:50:01.096Z,78.28
2022-10-11T07:52:27.754Z,78.30
2022-10-11T07:54:55.825Z,78.45
2022-10-11T07:57:22.548Z,78.53
2022-10-11T07:59:50.375Z,78.39
2022-10-11T08:02:18.063Z,78.41
2022-10-11T08:04:44.635Z,78.33
2022-10-11T08:07:11.320Z,78.42
2022-10-11T08:09:38.073Z,78.42
2022-10-11T08:12:06.375Z,78.55
2022-10-11T08:14:32.961Z,78.41
2022-10-11T08:16:59.868Z,78.17
2022-10-11T08:19:26.496Z,78.24
2022-10-11T08:21:53.100Z,78.17
2022-10-11T08:24:21.082Z,78.18
2022-10-11T08:26:48.129Z,78.10
2022-10-11T08:29:16.158Z,78.02
2022-10-11T08:31:44.520Z,77.99
2022-10-11T08:34:11.305Z,77.88
2022-10-11T08:36:38.371Z,77.72
2022-10-11T08:39:05.673Z,77.49
2022-10-11T08:41:40.980Z,77.46
2022-10-11T08:44:58.234Z,77.47
2022-10-11T08:47:27.305Z,77.39
2022-10-11T08:49:55.353Z,77.13
2022-10-11T08:52:25.176Z,77.34
2022-10-11T08:54:56.266Z,77.02
2022-10-11T08:57:26.011Z,76.75
2022-10-11T08:59:57.820Z,77.14
2022-10-11T09:03:06.482Z,77.00
2022-10-11T09:05:34.287Z,76.88
2022-10-11T09:08:07.971Z,76.70
2022-10-11T09:10:53.400Z,76.94
2022-10-11T09:13:41.627Z,76.73
2022-10-11T09:16:18.985Z,76.89
2022-10-11T09:19:09.167Z,77.00
2022-10-11T09:21:42.837Z,77.13
2022-10-11T09:24:24.825Z,76.75
2022-10-11T09:26:56.178Z,76.51
2022-10-11T09:29:45.432Z,76.73
2022-10-11T09:32:16.153Z,76.58
2022-10-11T09:34:43.405Z,76.55
2022-10-11T09:37:21.652Z,76.44
2022-10-11T09:39:56.653Z,76.59
2022-10-11T09:42:23.463Z,76.67
2022-10-11T09:44:51.555Z,76.55
2022-10-11T09:47:21.883Z,76.75
2022-10-11T09:49:52.891Z,76.58
2022-10-11T09:52:21.815Z,76.79
2022-10-11T09:54:51.056Z,76.65
2022-10-11T09:57:21.006Z,76.39
2022-10-11T10:00:00.511Z,76.38
2022-10-11T10:02:29.423Z,76.13
2022-10-11T10:05:03.493Z,75.80
2022-10-11T10:07:32.572Z,75.84
2022-10-11T10:09:59.631Z,75.95
2022-10-11T10:12:29.186Z,75.40
2022-10-11T10:15:03.456Z,75.37
2022-10-11T10:17:32.923Z,75.22
2022-10-11T10:20:00.626Z,75.24
2022-10-11T10:22:29.969Z,74.93
2022-10-11T10:24:58.704Z,74.71
2022-10-11T10:27:28.284Z,74.26
2022-10-11T10:30:15.990Z,74.28
2022-10-11T10:32:49.148Z,74.12
2022-10-11T10:35:27.467Z,74.19
2022-10-11T10:38:05.384Z,74.12
2022-10-11T10:40:39.162Z,73.68
2022-10-11T10:43:06.072Z,74.00
2022-10-11T10:45:43.183Z,73.77
2022-10-11T10:48:22.481Z,73.54
2022-10-11T10:50:54.611Z,73.21
2022-10-11T10:53:27.852Z,72.95
2022-10-11T10:56:05.172Z,72.82
2022-10-11T10:58:47.603Z,72.84
2022-10-11T11:01:19.262Z,72.74
2022-10-11T11:03:55.799Z,72.40
2022-10-11T11:06:35.622Z,72.03
2022-10-11T11:09:17.767Z,72.18
2022-10-11T11:11:56.827Z,71.63
2022-10-11T11:14:33.703Z,71.58
2022-10-11T11:17:11.249Z,71.11
2022-10-11T11:19:53.791Z,71.24
2022-10-11T11:22:34.480Z,70.48
2022-10-11T11:25:14.720Z,70.21
2022-10-11T11:27:55.657Z,70.34
2022-10-11T11:30:25.514Z,70.03
2022-10-11T11:33:04.003Z,69.21
2022-10-11T11:35:38.409Z,68.99
2022-10-11T11:38:18.892Z,68.73
2022-10-11T11:40:51.972Z,68.63
2022-10-11T11:43:25.206Z,68.53
2022-10-11T11:45:55.396Z,67.75
2022-10-11T11:48:24.823Z,67.65
2022-10-11T11:51:00.398Z,67.61
2022-10-11T11:53:44.568Z,67.57
2022-10-11T11:56:23.004Z,67.05
2022-10-11T11:59:03.076Z,66.59
2022-10-11T12:01:37.568Z,65.87
2022-10-11T12:04:09.388Z,65.86
2022-10-11T12:06:47.883Z,65.80
2022-10-11T12:09:23.106Z,65.74
2022-10-11T12:11:55.722Z,65.33
2022-10-11T12:14:35.123Z,65.48
2022-10-11T12:17:20.002Z,65.41
2022-10-11T12:20:14.689Z,65.37
2022-10-11T12:22:54.214Z,65.50
2022-10-11T12:25:40.754Z,65.27
2022-10-11T12:28:48.786Z,65.29
2022-10-11T12:31:23.511Z,64.82
2022-10-11T12:33:54.215Z,64.12
2022-10-11T12:36:39.822Z,63.88
2022-10-11T12:39:49.405Z,63.54
2022-10-11T12:42:32.934Z,63.84
2022-10-11T12:45:29.406Z,63.81
2022-10-11T12:48:07.604Z,63.71
2022-10-11T12:50:48.616Z,63.84
2022-10-11T12:53:30.368Z,63.85
2022-10-11T12:56:01.161Z,63.64
2022-10-11T12:58:34.031Z,63.40
2022-10-11T13:01:23.255Z,62.97
2022-10-11T13:03:58.210Z,62.76
2022-10-11T13:06:28.700Z,62.67
2022-10-11T13:09:00.623Z,62.44
2022-10-11T13:11:32.622Z,62.26
2022-10-11T13:14:07.867Z,61.78
2022-10-11T13:16:48.410Z,61.90
2022-10-11T13:19:15.449Z,61.61
2022-10-11T13:21:42.248Z,61.47
2022-10-11T13:24:12.946Z,61.31
2022-10-11T13:26:40.788Z,60.88
2022-10-11T13:29:16.761Z,60.63
2022-10-11T13:31:47.491Z,59.81
2022-10-11T13:34:16.739Z,59.60
2022-10-11T13:36:47.837Z,59.09
2022-10-11T13:39:30.983Z,58.27
2022-10-11T13:41:59.656Z,58.36
2022-10-11T13:44:28.189Z,57.79
2022-10-11T13:46:55.855Z,57.86
2022-10-11T13:49:28.252Z,57.76
2022-10-11T13:51:59.529Z,57.64
2022-10-11T13:54:48.834Z,57.89
2022-10-11T13:57:15.441Z,58.11
2022-10-11T13:59:44.364Z,58.09
2022-10-11T14:02:20.089Z,58.11
2022-10-11T14:04:48.814Z,58.11
2022-10-11T14:07:22.128Z,58.08
2022-10-11T14:09:48.944Z,58.47
2022-10-11T14:12:32.281Z,57.99
2022-10-11T14:15:01.486Z,58.21
2022-10-11T14:17:42.455Z,57.97
2022-10-11T14:20:16.726Z,57.74
2022-10-11T14:22:43.703Z,58.12
2022-10-11T14:25:12.994Z,58.23
2022-10-11T14:27:39.826Z,58.57
2022-10-11T14:30:31.206Z,58.69
2022-10-11T14:33:00.946Z,58.78
2022-10-11T14:35:32.347Z,58.92
2022-10-11T14:37:59.482Z,59.12
2022-10-11T14:40:30.414Z,59.05
2022-10-11T14:42:57.395Z,59.32
2022-10-11T14:45:25.722Z,59.30
2022-10-11T14:47:55.496Z,59.17
2022-10-11T14:50:31.605Z,58.68
2022-10-11T14:52:58.695Z,58.62
2022-10-11T14:55:25.475Z,58.47
2022-10-11T14:57:52.475Z,58.53
2022-10-11T15:00:22.370Z,58.51
2022-10-11T15:02:50.882Z,58.42
2022-10-11T15:05:18.193Z,58.06
2022-10-11T15:07:45.142Z,57.79
2022-10-11T15:10:19.899Z,57.44
2022-10-11T15:12:48.122Z,57.79
2022-10-11T15:15:20.580Z,57.88
2022-10-11T15:17:49.053Z,58.06
2022-10-11T15:20:23.030Z,57.75
2022-10-11T15:22:49.778Z,58.14
2022-10-11T15:25:17.918Z,58.54
2022-10-11T15:27:45.127Z,58.41
2022-10-11T15:30:19.800Z,58.35
2022-10-11T15:32:47.164Z,58.50
2022-10-11T15:35:14.719Z,58.36
2022-10-11T15:37:43.064Z,58.44
2022-10-11T15:40:16.501Z,58.67
2022-10-11T15:42:43.487Z,58.83
2022-10-11T15:45:10.788Z,59.01
2022-10-11T15:47:37.469Z,59.47
2022-10-11T15:50:05.129Z,59.49
2022-10-11T15:52:31.849Z,59.70
2022-10-11T15:54:59.861Z,60.07
2022-10-11T15:57:26.630Z,60.36
2022-10-11T15:59:53.179Z,60.34
2022-10-11T16:02:19.793Z,60.53
2022-10-11T16:04:46.381Z,60.89
2022-10-11T16:07:13.136Z,61.07
2022-10-11T16:09:39.791Z,61.30
2022-10-11T16:12:08.517Z,61.29
2022-10-11T16:14:35.078Z,61.63
2022-10-11T16:17:04.058Z,61.87
2022-10-11T16:19:30.727Z,62.21
2022-10-11T16:21:57.362Z,62.25
2022-10-11T16:24:24.033Z,62.62
2022-10-11T16:26:51.254Z,62.71
2022-10-11T16:29:19.183Z,62.68
2022-10-11T16:31:45.814Z,63.27
2022-10-11T16:34:12.389Z,63.50
2022-10-11T16:36:42.846Z,63.81
2022-10-11T16:39:13.246Z,63.81
2022-10-11T16:41:41.211Z,64.25
2022-10-11T16:44:11.240Z,63.97
2022-10-11T16:46:39.395Z,64.65
2022-10-11T16:49:07.410Z,64.86
2022-10-11T16:51:34.043Z,64.89
2022-10-11T16:54:01.147Z,65.33
2022-10-11T16:56:28.363Z,65.11
2022-10-11T16:58:55.492Z,65.30
2022-10-11T17:01:22.424Z,65.44
2022-10-11T17:03:53.410Z,66.00
2022-10-11T17:06:20.280Z,65.68
2022-10-11T17:08:47.076Z,65.95
2022-10-11T17:11:13.930Z,66.09
2022-10-11T17:13:40.733Z,66.29
2022-10-11T17:16:08.372Z,66.51
2022-10-11T17:18:35.676Z,66.67
2022-10-11T17:21:06.039Z,66.97
2022-10-11T17:23:33.770Z,66.95
2022-10-11T17:26:05.220Z,67.48
2022-10-11T17:28:35.457Z,67.24
2022-10-11T17:31:04.798Z,67.44
2022-10-11T17:33:31.820Z,67.97
2022-10-11T17:36:00.523Z,67.77
2022-10-11T17:38:29.078Z,67.94
2022-10-11T17:40:59.538Z,68.13
2022-10-11T17:43:26.199Z,68.14
2022-10-11T17:45:55.016Z,68.20
2022-10-11T17:48:21.638Z,68.35
2022-10-11T17:50:50.668Z,68.46
2022-10-11T17:53:18.083Z,68.74
2022-10-11T17:55:46.264Z,68.73
2022-10-11T17:58:12.977Z,68.74
2022-10-11T18:00:40.009Z,68.71
2022-10-11T18:03:06.918Z,69.02
2022-10-11T18:05:33.571Z,69.22
2022-10-11T18:08:00.140Z,69.10
2022-10-11T18:10:28.387Z,69.74
2022-10-11T18:12:56.360Z,69.52
2022-10-11T18:15:22.943Z,69.43
2022-10-11T18:17:49.757Z,69.84
2022-10-11T18:20:16.541Z,69.69
2022-10-11T18:22:43.503Z,70.09
2022-10-11T18:25:11.341Z,70.17
2022-10-11T18:27:38.293Z,70.20
2022-10-11T18:30:09.642Z,70.39
2022-10-11T18:32:36.479Z,70.11
2022-10-11T18:35:03.209Z,70.50
2022-10-11T18:37:29.974Z,70.71
2022-10-11T18:39:56.647Z,70.54
2022-10-11T18:42:23.297Z,70.87
2022-10-11T18:44:49.963Z,70.87
2022-10-11T18:47:18.338Z,70.69
2022-10-11T18:49:45.107Z,71.14
2022-10-11T18:52:15.343Z,71.11
2022-10-11T18:54:41.963Z,70.86
2022-10-11T18:57:08.591Z,71.08
2022-10-11T18:59:35.377Z,70.97
2022-10-11T19:02:04.066Z,71.10
2022-10-11T19:04:34.265Z,71.39
2022-10-11T19:07:00.944Z,71.21
2022-10-11T19:09:28.794Z,71.11
2022-10-11T19:11:57.429Z,71.48
2022-10-11T19:14:26.500Z,71.32
2022-10-11T19:16:53.313Z,71.54
2022-10-11T19:19:21.537Z,71.35
2022-10-11T19:21:49.910Z,71.30
2022-10-11T19:24:17.929Z,71.53
2022-10-11T19:26:44.819Z,71.41
2022-10-11T19:29:14.797Z,71.88
2022-10-11T19:31:42.860Z,71.69
2022-10-11T19:34:10.282Z,71.86
2022-10-11T19:36:37.974Z,72.01
2022-10-11T19:39:06.292Z,72.00
2022-10-11T19:41:33.454Z,72.17
2022-10-11T19:44:01.139Z,71.91
2022-10-11T19:49:17.729Z,71.92
2022-10-11T19:51:44.743Z,72.06
2022-10-11T19:54:14.427Z,72.00
2022-10-11T19:56:41.418Z,72.21
2022-10-11T19:59:08.273Z,72.35
2022-10-11T20:01:36.807Z,72.58
2022-10-11T20:04:06.175Z,72.65
2022-10-11T20:06:38.364Z,72.48
2022-10-11T20:09:27.853Z,72.73
2022-10-11T20:11:53.720Z,72.93
2022-10-11T20:14:20.826Z,72.71
2022-10-11T20:16:49.674Z,73.08
2022-10-11T20:19:16.262Z,72.82
2022-10-11T20:21:42.879Z,72.88
2022-10-11T20:24:09.787Z,72.61
2022-10-11T20:26:36.486Z,72.94
2022-10-11T20:29:04.563Z,73.23
2022-10-11T20:31:34.550Z,73.34
2022-10-11T20:34:04.093Z,73.27
2022-10-11T20:36:32.675Z,73.17
2022-10-11T20:39:00.061Z,73.33
2022-10-11T20:41:28.578Z,73.64
2022-10-11T20:43:57.043Z,73.71
2022-10-11T20:46:27.885Z,73.44
2022-10-11T20:49:01.185Z,73.71
2022-10-11T20:51:29.268Z,73.72
2022-10-11T20:53:56.528Z,73.43
2022-10-11T20:56:23.677Z,73.57
2022-10-11T20:58:52.088Z,73.76
2022-10-11T21:01:20.544Z,73.83
2022-10-11T21:03:48.715Z,73.73
2022-10-11T21:06:15.526Z,73.64
2022-10-11T21:08:42.432Z,73.82
2022-10-11T21:11:09.915Z,74.04
2022-10-11T21:13:36.709Z,73.90
2022-10-11T21:16:04.471Z,73.96
2022-10-11T21:18:35.531Z,74.20
2022-10-11T21:21:08.537Z,74.23
2022-10-11T21:23:44.685Z,74.10
2022-10-11T21:26:16.976Z,74.08
2022-10-11T21:28:45.334Z,74.02
2022-10-11T21:31:13.699Z,74.13
2022-10-11T21:33:41.916Z,74.35
2022-10-11T21:36:12.980Z,74.37
2022-10-11T21:38:42.050Z,74.43
2022-10-11T21:41:12.426Z,74.41
2022-10-11T21:43:39.218Z,74.34
2022-10-11T21:46:10.463Z,74.42
2022-10-11T21:48:37.046Z,74.68
2022-10-11T21:51:04.346Z,74.67
2022-10-11T21:53:32.806Z,74.56
2022-10-11T21:56:01.551Z,74.62
2022-10-11T21:58:28.571Z,74.70
2022-10-11T22:00:55.186Z,74.60
2022-10-11T22:03:21.956Z,74.55
2022-10-11T22:05:48.617Z,74.67
2022-10-11T22:08:15.841Z,74.63
2022-10-11T22:10:45.095Z,74.69
2022-10-11T22:13:11.983Z,74.87
2022-10-11T22:15:39.637Z,74.95
2022-10-11T22:18:06.871Z,74.97
2022-10-11T22:20:33.928Z,74.91
2022-10-11T22:23:02.155Z,74.79
2022-10-11T22:25:28.835Z,74.79
2022-10-11T22:27:56.879Z,75.06
2022-10-11T22:30:23.465Z,75.01
2022-10-11T22:32:50.937Z,74.96
2022-10-11T22:35:17.514Z,75.08
2022-10-11T22:37:44.147Z,74.92
2022-10-11T22:40:11.166Z,75.03
2022-10-11T22:42:37.771Z,75.15
2022-10-11T22:45:06.829Z,74.97
2022-10-11T22:47:33.642Z,74.99
2022-10-11T22:50:00.653Z,75.11
2022-10-11T22:52:27.311Z,75.19
2022-10-11T22:54:53.929Z,75.01
2022-10-11T22:57:20.599Z,75.07
2022-10-11T22:59:47.167Z,75.20
2022-10-11T23:02:15.159Z,75.06
2022-10-11T23:04:41.727Z,75.27
2022-10-11T23:07:08.333Z,75.53
2022-10-11T23:09:34.912Z,75.45
2022-10-11T23:12:01.690Z,75.12
2022-10-11T23:14:28.371Z,75.10
2022-10-11T23:16:54.968Z,75.40
2022-10-11T23:19:25.498Z,75.21
2022-10-11T23:21:52.249Z,75.32
2022-10-11T23:24:18.823Z,75.31
2022-10-11T23:26:45.833Z,75.43
2022-10-11T23:29:12.795Z,75.37
2022-10-11T23:31:39.500Z,75.36
2022-10-11T23:34:06.904Z,75.56
2022-10-11T23:36:35.085Z,75.35
2022-10-11T23:39:01.707Z,75.39
2022-10-11T23:41:29.463Z,75.38
2022-10-11T23:43:57.423Z,75.52
2022-10-11T23:46:24.623Z,75.33
2022-10-11T23:48:51.320Z,75.56
2022-10-11T23:51:17.950Z,75.41
2022-10-11T23:53:45.927Z,75.53
2022-10-11T23:56:12.682Z,75.54
2022-10-11T23:58:39.770Z,75.31
